createdAt,value
2022-11-21T00:01:58.141Z,12.07
2022-11-21T00:04:42.725Z,11.33
2022-11-21T00:07:11.051Z,11.57
2022-11-21T00:09:47.511Z,10.07
2022-11-21T00:12:22.757Z,10.30
2022-11-21T00:14:55.538Z,10.83
2022-11-21T00:17:43.599Z,9.43
2022-11-21T00:20:34.144Z,10.60
2022-11-21T00:23:17.513Z,9.77
2022-11-21T00:26:00.128Z,10.20
2022-11-21T00:28:40.139Z,9.77
2022-11-21T00:31:08.454Z,11.20
2022-11-21T00:33:41.170Z,10.53
2022-11-21T00:36:20.639Z,12.03
2022-11-21T00:39:01.125Z,12.10
2022-11-21T00:41:38.601Z,12.00
2022-11-21T00:44:13.647Z,12.30
2022-11-21T00:46:51.653Z,12.07
2022-11-21T00:49:24.063Z,12.00
2022-11-21T00:52:04.082Z,11.43
2022-11-21T00:54:51.431Z,11.60
2022-11-21T00:57:22.986Z,10.07
2022-11-21T01:00:00.767Z,11.03
2022-11-21T01:02:35.040Z,10.87
2022-11-21T01:05:17.286Z,11.23
2022-11-21T01:07:56.086Z,10.73
2022-11-21T01:10:24.148Z,12.30
2022-11-21T01:12:52.287Z,12.17
2022-11-21T01:15:20.313Z,12.60
2022-11-21T01:17:49.783Z,11.20
2022-11-21T01:20:20.852Z,12.00
2022-11-21T01:22:50.586Z,12.37
2022-11-21T01:25:18.680Z,11.77
2022-11-21T01:27:46.679Z,10.93
2022-11-21T01:30:15.796Z,11.33
2022-11-21T01:32:51.468Z,11.93
2022-11-21T01:35:34.252Z,11.70
2022-11-21T01:38:13.147Z,12.43
2022-11-21T01:40:45.416Z,12.70
2022-11-21T01:43:22.232Z,10.60
2022-11-21T01:46:25.400Z,11.77
2022-11-21T01:49:01.565Z,11.53
2022-11-21T01:51:34.133Z,10.60
2022-11-21T01:54:09.889Z,12.00
2022-11-21T01:56:42.976Z,11.93
2022-11-21T01:59:15.784Z,11.53
2022-11-21T02:01:50.047Z,11.87
2022-11-21T02:04:23.172Z,11.40
2022-11-21T02:06:51.831Z,11.73
2022-11-21T02:09:22.059Z,11.90
2022-11-21T02:11:56.973Z,11.70
2022-11-21T02:14:36.076Z,12.00
2022-11-21T02:17:14.479Z,12.23
2022-11-21T02:19:51.656Z,12.07
2022-11-21T02:22:48.202Z,12.70
2022-11-21T02:25:38.295Z,12.87
2022-11-21T02:28:35.611Z,13.20
2022-11-21T02:31:13.513Z,13.90
2022-11-21T02:33:51.698Z,12.07
2022-11-21T02:36:44.800Z,12.47
2022-11-21T02:39:22.585Z,12.20
2022-11-21T02:42:06.643Z,12.47
2022-11-21T02:44:49.029Z,12.83
2022-11-21T02:47:46.538Z,14.00
2022-11-21T02:50:26.165Z,11.50
2022-11-21T02:53:09.097Z,12.40
2022-11-21T02:55:42.927Z,12.60
2022-11-21T02:58:26.187Z,12.90
2022-11-21T03:00:55.735Z,12.93
2022-11-21T03:03:27.116Z,12.63
2022-11-21T03:06:02.172Z,13.03
2022-11-21T03:08:33.378Z,12.67
2022-11-21T03:11:05.007Z,13.13
2022-11-21T03:13:41.821Z,13.17
2022-11-21T03:16:19.737Z,13.77
2022-11-21T03:19:03.171Z,13.03
2022-11-21T03:21:31.623Z,12.27
2022-11-21T03:24:03.337Z,12.93
2022-11-21T03:26:37.374Z,12.93
2022-11-21T03:29:14.207Z,12.83
2022-11-21T03:31:44.924Z,12.57
2022-11-21T03:34:19.538Z,12.80
2022-11-21T03:36:52.483Z,12.20
2022-11-21T03:39:37.846Z,12.27
2022-11-21T03:42:09.760Z,12.03
2022-11-21T03:44:45.239Z,13.07
2022-11-21T03:47:14.733Z,12.50
2022-11-21T03:49:48.752Z,12.70
2022-11-21T03:52:31.130Z,12.60
2022-11-21T03:55:02.171Z,13.37
2022-11-21T03:57:30.780Z,11.90
2022-11-21T04:00:07.276Z,12.27
2022-11-21T04:02:46.523Z,12.30
2022-11-21T04:05:19.295Z,12.57
2022-11-21T04:07:56.103Z,12.53
2022-11-21T04:10:30.849Z,12.33
2022-11-21T04:13:02.359Z,12.90
2022-11-21T04:15:48.290Z,11.83
2022-11-21T04:18:38.399Z,12.37
2022-11-21T04:21:21.863Z,13.57
2022-11-21T04:23:58.953Z,12.93
2022-11-21T04:26:29.898Z,12.03
2022-11-21T04:29:03.382Z,12.23
2022-11-21T04:31:45.112Z,12.37
2022-11-21T04:34:16.939Z,12.40
2022-11-21T04:36:48.801Z,12.77
2022-11-21T04:39:22.739Z,12.40
2022-11-21T04:42:06.105Z,11.20
2022-11-21T04:44:39.706Z,11.57
2022-11-21T04:47:35.138Z,12.27
2022-11-21T04:50:07.963Z,10.67
2022-11-21T04:52:49.567Z,11.63
2022-11-21T04:55:20.898Z,12.03
2022-11-21T04:57:52.526Z,12.30
2022-11-21T05:00:25.248Z,11.77
2022-11-21T05:03:21.696Z,11.97
2022-11-21T05:06:00.554Z,11.93
2022-11-21T05:08:35.245Z,12.80
2022-11-21T05:11:33.269Z,11.70
2022-11-21T05:14:13.595Z,11.93
2022-11-21T05:20:32.316Z,13.20
2022-11-21T05:23:03.408Z,12.47
2022-11-21T05:25:31.130Z,11.83
2022-11-21T05:27:58.949Z,12.07
2022-11-21T05:30:26.666Z,12.40
2022-11-21T05:32:54.403Z,13.10
2022-11-21T05:35:22.219Z,11.40
2022-11-21T05:37:57.008Z,12.13
2022-11-21T05:40:24.933Z,13.13
2022-11-21T05:43:10.195Z,13.00
2022-11-21T05:45:37.894Z,13.77
2022-11-21T05:48:07.767Z,13.17
2022-11-21T05:50:36.424Z,13.20
2022-11-21T05:53:06.022Z,13.20
2022-11-21T05:55:35.318Z,14.67
2022-11-21T05:58:03.036Z,13.80
2022-11-21T06:00:31.064Z,14.63
2022-11-21T06:03:16.425Z,14.40
2022-11-21T06:05:44.160Z,14.47
2022-11-21T06:08:13.197Z,14.10
2022-11-21T06:10:40.907Z,13.80
2022-11-21T06:13:22.108Z,13.43
2022-11-21T06:15:54.755Z,11.90
2022-11-21T06:18:22.564Z,16.70
2022-11-21T06:20:50.988Z,13.87
2022-11-21T06:23:20.236Z,12.43
2022-11-21T06:25:47.929Z,14.10
2022-11-21T06:28:15.612Z,13.50
2022-11-21T06:30:43.305Z,11.93
2022-11-21T06:33:10.986Z,12.60
2022-11-21T06:35:40.056Z,11.87
2022-11-21T06:38:07.723Z,13.17
2022-11-21T06:40:36.819Z,13.23
2022-11-21T06:43:04.518Z,13.07
2022-11-21T06:45:32.429Z,13.00
2022-11-21T06:48:03.277Z,15.43
2022-11-21T06:50:32.217Z,14.10
2022-11-21T06:52:59.949Z,14.37
2022-11-21T06:55:28.705Z,13.00
2022-11-21T06:57:59.994Z,14.07
2022-11-21T07:00:29.005Z,14.23
2022-11-21T07:03:03.172Z,13.50
2022-11-21T07:05:32.177Z,14.70
2022-11-21T07:08:00.448Z,14.00
2022-11-21T07:10:28.412Z,14.60
2022-11-21T07:13:17.384Z,13.87
2022-11-21T07:15:45.935Z,14.17
2022-11-21T07:18:14.032Z,15.77
2022-11-21T07:20:42.159Z,18.20
2022-11-21T07:23:09.953Z,17.17
2022-11-21T07:25:39.441Z,13.30
2022-11-21T07:28:09.267Z,13.23
2022-11-21T07:30:37.594Z,16.20
2022-11-21T07:33:06.897Z,16.27
2022-11-21T07:35:35.371Z,16.00
2022-11-21T07:38:03.717Z,24.17
2022-11-21T07:40:33.752Z,18.70
2022-11-21T07:43:06.678Z,18.53
2022-11-21T07:45:39.901Z,17.93
2022-11-21T07:48:08.651Z,15.50
2022-11-21T07:50:36.729Z,20.37
2022-11-21T07:53:06.568Z,18.17
2022-11-21T07:55:40.197Z,16.67
2022-11-21T07:58:10.759Z,17.67
2022-11-21T08:00:42.698Z,15.73
2022-11-21T08:03:11.935Z,16.87
2022-11-21T08:05:40.407Z,19.17
2022-11-21T08:08:08.436Z,16.17
2022-11-21T08:10:38.667Z,17.60
2022-11-21T08:13:06.437Z,16.03
2022-11-21T08:15:34.199Z,16.80
2022-11-21T08:18:10.051Z,17.70
2022-11-21T08:20:37.777Z,18.23
2022-11-21T08:23:06.003Z,15.47
2022-11-21T08:25:33.865Z,15.20
2022-11-21T08:28:02.865Z,13.83
2022-11-21T08:30:31.127Z,16.03
2022-11-21T08:32:58.977Z,15.37
2022-11-21T08:35:28.307Z,16.20
2022-11-21T08:37:59.486Z,14.97
2022-11-21T08:40:29.089Z,15.57
2022-11-21T08:42:59.884Z,15.07
2022-11-21T08:45:28.068Z,15.37
2022-11-21T08:47:56.033Z,15.03
2022-11-21T08:50:24.217Z,17.20
2022-11-21T08:52:53.517Z,17.33
2022-11-21T08:55:23.011Z,16.90
2022-11-21T08:57:50.694Z,18.47
2022-11-21T09:00:18.579Z,19.07
2022-11-21T09:02:46.251Z,15.07
2022-11-21T09:05:13.965Z,14.67
2022-11-21T09:07:42.262Z,15.93
2022-11-21T09:10:11.744Z,15.67
2022-11-21T09:12:39.455Z,15.27
2022-11-21T09:15:25.679Z,14.93
2022-11-21T09:18:05.459Z,16.67
2022-11-21T09:20:34.248Z,15.53
2022-11-21T09:23:05.598Z,13.83
2022-11-21T09:25:34.785Z,15.23
2022-11-21T09:28:03.113Z,16.67
2022-11-21T09:30:30.828Z,16.10
2022-11-21T09:33:01.143Z,12.23
2022-11-21T09:35:28.847Z,16.40
2022-11-21T09:37:56.532Z,17.37
2022-11-21T09:40:24.423Z,19.53
2022-11-21T09:43:03.595Z,19.43
2022-11-21T09:45:34.492Z,20.13
2022-11-21T09:48:05.365Z,19.77
2022-11-21T09:50:36.683Z,21.43
2022-11-21T09:53:09.461Z,19.83
2022-11-21T09:55:43.190Z,19.57
2022-11-21T09:58:21.845Z,19.27
2022-11-21T10:00:52.550Z,21.20
2022-11-21T10:03:22.676Z,22.97
2022-11-21T10:05:55.220Z,22.20
2022-11-21T10:08:33.783Z,22.80
2022-11-21T10:11:19.374Z,20.83
2022-11-21T10:14:05.380Z,22.37
2022-11-21T10:16:44.553Z,22.27
2022-11-21T10:20:02.725Z,21.43
2022-11-21T10:23:00.090Z,21.80
2022-11-21T10:25:33.610Z,17.70
2022-11-21T10:28:07.695Z,19.23
2022-11-21T10:30:38.323Z,18.10
2022-11-21T10:33:12.771Z,17.33
2022-11-21T10:35:43.479Z,16.93
2022-11-21T10:38:21.726Z,17.10
2022-11-21T10:40:53.518Z,17.63
2022-11-21T10:43:51.282Z,16.73
2022-11-21T10:46:20.424Z,16.77
2022-11-21T10:48:57.868Z,17.53
2022-11-21T10:51:38.380Z,17.13
2022-11-21T10:54:26.808Z,16.13
2022-11-21T10:56:57.687Z,15.40
2022-11-21T10:59:30.931Z,15.97
2022-11-21T11:02:02.121Z,14.20
2022-11-21T11:04:44.096Z,15.60
2022-11-21T11:07:25.715Z,15.10
2022-11-21T11:09:54.298Z,15.77
2022-11-21T11:12:50.828Z,15.37
2022-11-21T11:15:20.927Z,15.10
2022-11-21T11:17:54.374Z,16.67
2022-11-21T11:20:35.459Z,15.70
2022-11-21T11:23:17.908Z,16.40
2022-11-21T11:25:50.180Z,16.77
2022-11-21T11:28:19.204Z,14.63
2022-11-21T11:30:48.826Z,14.83
2022-11-21T11:33:33.008Z,16.07
2022-11-21T11:36:15.905Z,15.17
2022-11-21T11:38:53.475Z,16.17
2022-11-21T11:41:57.054Z,15.80
2022-11-21T11:44:51.373Z,14.50
2022-11-21T11:47:32.773Z,15.13
2022-11-21T11:50:12.138Z,13.70
2022-11-21T11:52:49.327Z,14.00
2022-11-21T11:55:21.184Z,15.13
2022-11-21T11:57:50.296Z,13.80
2022-11-21T12:00:27.834Z,13.27
2022-11-21T12:03:01.921Z,9.53
2022-11-21T12:05:33.112Z,8.97
2022-11-21T12:11:22.396Z,8.07
2022-11-21T12:13:55.685Z,9.03
2022-11-21T12:16:26.838Z,8.23
2022-11-21T12:18:59.645Z,8.43
2022-11-21T12:21:29.818Z,8.43
2022-11-21T12:23:58.991Z,8.70
2022-11-21T12:26:40.509Z,8.90
2022-11-21T12:29:24.159Z,8.17
2022-11-21T12:32:09.844Z,8.70
2022-11-21T12:35:05.322Z,7.57
2022-11-21T12:37:44.282Z,8.37
2022-11-21T12:40:28.157Z,8.53
2022-11-21T12:43:07.540Z,7.57
2022-11-21T12:45:37.640Z,8.37
2022-11-21T12:48:36.915Z,8.03
2022-11-21T12:51:59.479Z,7.47
2022-11-21T12:55:03.203Z,7.40
2022-11-21T12:57:44.428Z,7.80
2022-11-21T13:00:18.602Z,6.63
2022-11-21T13:03:04.211Z,7.47
2022-11-21T13:05:36.422Z,8.00
2022-11-21T13:08:19.926Z,7.30
2022-11-21T13:11:18.166Z,7.57
2022-11-21T13:13:49.090Z,8.53
2022-11-21T13:16:37.007Z,8.50
2022-11-21T13:19:16.992Z,8.33
2022-11-21T13:21:47.784Z,7.83
2022-11-21T13:24:48.546Z,8.47
2022-11-21T13:27:31.043Z,9.03
2022-11-21T13:30:20.149Z,8.23
2022-11-21T13:32:49.800Z,7.80
2022-11-21T13:35:56.504Z,8.00
2022-11-21T13:38:24.147Z,7.77
2022-11-21T13:41:05.801Z,7.73
2022-11-21T13:43:35.700Z,7.43
2022-11-21T13:46:03.718Z,7.27
2022-11-21T13:48:59.908Z,7.43
2022-11-21T13:51:50.104Z,7.10
2022-11-21T13:54:45.080Z,6.73
2022-11-21T13:57:26.900Z,6.63
2022-11-21T14:00:19.812Z,6.00
2022-11-21T14:03:30.096Z,6.17
2022-11-21T14:06:20.122Z,6.00
2022-11-21T14:09:08.710Z,5.77
2022-11-21T14:11:41.301Z,5.17
2022-11-21T14:14:10.356Z,6.67
2022-11-21T14:16:47.044Z,6.30
2022-11-21T14:19:18.985Z,5.80
2022-11-21T14:21:47.439Z,7.00
2022-11-21T14:24:18.676Z,7.07
2022-11-21T14:26:49.227Z,6.10
2022-11-21T14:29:22.587Z,6.80
2022-11-21T14:31:51.816Z,6.87
2022-11-21T14:34:26.857Z,6.17
2022-11-21T14:36:56.364Z,7.17
2022-11-21T14:39:38.695Z,7.37
2022-11-21T14:42:13.925Z,6.77
2022-11-21T14:44:41.880Z,7.03
2022-11-21T14:47:21.472Z,6.97
2022-11-21T14:49:54.515Z,6.23
2022-11-21T14:52:25.999Z,7.57
2022-11-21T14:57:45.610Z,6.50
2022-11-21T15:00:43.173Z,6.40
2022-11-21T15:03:19.611Z,6.87
2022-11-21T15:06:01.824Z,8.13
2022-11-21T15:11:19.419Z,7.20
2022-11-21T15:16:37.685Z,7.37
2022-11-21T15:19:12.068Z,7.53
2022-11-21T15:21:46.390Z,7.27
2022-11-21T15:24:18.800Z,8.73
2022-11-21T15:26:47.379Z,8.83
2022-11-21T15:29:22.638Z,9.33
2022-11-21T15:32:09.156Z,9.60
2022-11-21T15:34:39.655Z,8.40
2022-11-21T15:37:16.239Z,7.03
2022-11-21T15:39:45.296Z,6.83
2022-11-21T15:42:38.359Z,7.47
2022-11-21T15:45:23.212Z,6.83
2022-11-21T15:47:50.981Z,7.90
2022-11-21T15:50:24.409Z,8.33
2022-11-21T15:52:53.358Z,8.80
2022-11-21T15:55:23.559Z,8.87
2022-11-21T15:57:14.777Z,8.07
2022-11-21T15:57:51.269Z,7.87
2022-11-21T16:00:19.252Z,11.77
2022-11-21T16:02:47.390Z,7.93
2022-11-21T16:05:16.447Z,9.00
2022-11-21T16:07:45.512Z,7.57
2022-11-21T16:10:19.735Z,8.63
2022-11-21T16:12:48.947Z,7.23
2022-11-21T16:15:16.919Z,7.47
2022-11-21T16:17:45.596Z,7.47
2022-11-21T16:20:14.047Z,7.73
2022-11-21T16:22:47.076Z,8.83
2022-11-21T16:25:17.197Z,9.50
2022-11-21T16:27:44.931Z,6.40
2022-11-21T16:30:13.288Z,5.13
2022-11-21T16:32:40.988Z,6.50
2022-11-21T16:35:09.484Z,7.97
2022-11-21T16:37:37.235Z,7.20
2022-11-21T16:40:05.779Z,6.87
2022-11-21T16:42:34.845Z,6.57
2022-11-21T16:45:02.532Z,7.87
2022-11-21T16:47:30.509Z,6.83
2022-11-21T16:49:58.201Z,8.23
2022-11-21T16:52:26.264Z,8.00
2022-11-21T16:54:53.983Z,8.23
2022-11-21T16:57:21.672Z,8.57
2022-11-21T16:59:50.737Z,8.47
2022-11-21T17:02:18.455Z,6.67
2022-11-21T17:04:47.056Z,8.27
2022-11-21T17:07:14.840Z,6.47
2022-11-21T17:09:42.576Z,7.17
2022-11-21T17:12:10.383Z,6.33
2022-11-21T17:14:38.169Z,7.60
2022-11-21T17:17:07.201Z,4.40
2022-11-21T17:19:34.959Z,6.40
2022-11-21T17:22:02.624Z,7.10
2022-11-21T17:24:30.613Z,6.23
2022-11-21T17:27:00.505Z,6.73
2022-11-21T17:29:28.299Z,5.77
2022-11-21T17:31:56.264Z,7.73
2022-11-21T17:34:31.281Z,4.53
2022-11-21T17:37:00.606Z,3.73
2022-11-21T17:39:30.161Z,6.67
2022-11-21T17:41:59.309Z,5.13
2022-11-21T17:44:27.496Z,8.00
2022-11-21T17:46:57.671Z,6.83
2022-11-21T17:49:29.921Z,7.20
2022-11-21T17:51:57.852Z,6.77
2022-11-21T17:54:25.590Z,7.23
2022-11-21T17:56:56.822Z,7.47
2022-11-21T17:59:24.901Z,6.83
2022-11-21T18:01:52.732Z,5.73
2022-11-21T18:04:20.729Z,7.77
2022-11-21T18:06:49.806Z,7.43
2022-11-21T18:09:18.436Z,7.63
2022-11-21T18:11:46.464Z,6.27
2022-11-21T18:14:14.965Z,6.73
2022-11-21T18:16:49.382Z,8.23
2022-11-21T18:19:20.941Z,7.07
2022-11-21T18:21:50.032Z,7.77
2022-11-21T18:24:17.891Z,7.47
2022-11-21T18:26:46.964Z,5.03
2022-11-21T18:32:03.253Z,8.20
2022-11-21T18:34:30.953Z,4.53
2022-11-21T18:37:00.087Z,8.50
2022-11-21T18:39:28.005Z,7.03
2022-11-21T18:41:55.892Z,8.47
2022-11-21T18:44:23.744Z,8.63
2022-11-21T18:46:51.640Z,5.53
2022-11-21T18:49:19.504Z,7.07
2022-11-21T18:51:48.579Z,8.93
2022-11-21T18:54:17.959Z,8.73
2022-11-21T18:56:47.010Z,7.03
2022-11-21T18:59:15.192Z,7.37
2022-11-21T19:01:43.264Z,7.20
2022-11-21T19:04:11.110Z,7.23
2022-11-21T19:06:38.965Z,7.47
2022-11-21T19:09:08.165Z,6.53
2022-11-21T19:11:37.323Z,7.97
2022-11-21T19:14:05.216Z,7.13
2022-11-21T19:16:34.319Z,9.53
2022-11-21T19:19:33.112Z,6.43
2022-11-21T19:21:50.680Z,4.83
2022-11-21T19:24:19.428Z,7.57
2022-11-21T19:26:50.355Z,9.13
2022-11-21T19:29:18.929Z,6.30
2022-11-21T19:31:46.643Z,6.73
2022-11-21T19:34:14.864Z,6.83
2022-11-21T19:36:43.310Z,8.83
2022-11-21T19:39:11.449Z,7.27
2022-11-21T19:41:39.277Z,4.43
2022-11-21T19:44:08.406Z,8.57
2022-11-21T19:46:37.787Z,7.43
2022-11-21T19:49:06.702Z,8.17
2022-11-21T19:51:35.943Z,8.17
2022-11-21T19:54:04.442Z,8.23
2022-11-21T19:56:32.436Z,11.37
2022-11-21T19:59:00.424Z,11.67
2022-11-21T20:01:31.347Z,9.17
2022-11-21T20:04:01.400Z,11.00
2022-11-21T20:06:31.109Z,9.40
2022-11-21T20:09:00.979Z,9.30
2022-11-21T20:11:30.948Z,8.13
2022-11-21T20:13:58.706Z,7.83
2022-11-21T20:16:30.424Z,8.37
2022-11-21T20:19:00.342Z,8.70
2022-11-21T20:21:28.653Z,8.83
2022-11-21T20:23:56.419Z,8.90
2022-11-21T20:26:25.315Z,6.67
2022-11-21T20:28:53.341Z,7.80
2022-11-21T20:31:22.672Z,8.37
2022-11-21T20:33:53.304Z,7.63
2022-11-21T20:36:22.645Z,6.70
2022-11-21T20:38:52.102Z,8.40
2022-11-21T20:41:19.867Z,8.47
2022-11-21T20:44:53.222Z,9.20
2022-11-21T20:46:35.939Z,8.07
2022-11-21T20:49:05.003Z,9.87
2022-11-21T20:53:06.194Z,8.47
2022-11-21T20:54:20.362Z,7.60
2022-11-21T20:56:48.359Z,8.87
2022-11-21T20:59:16.094Z,8.40
2022-11-21T21:01:44.045Z,8.30
2022-11-21T21:04:14.181Z,6.47
2022-11-21T21:06:41.917Z,8.83
2022-11-21T21:09:09.621Z,8.87
2022-11-21T21:11:51.420Z,8.03
2022-11-21T21:14:20.544Z,6.57
2022-11-21T21:16:48.487Z,8.73
2022-11-21T21:19:17.695Z,9.20
2022-11-21T21:21:45.719Z,8.07
2022-11-21T21:24:14.277Z,5.43
2022-11-21T21:26:44.401Z,6.10
2022-11-21T21:29:13.485Z,8.37
2022-11-21T21:31:45.524Z,9.03
2022-11-21T21:34:18.915Z,10.00
2022-11-21T21:36:46.926Z,9.03
2022-11-21T21:39:14.707Z,9.37
2022-11-21T21:41:44.798Z,8.20
2022-11-21T21:44:12.845Z,9.20
2022-11-21T21:46:40.762Z,9.10
2022-11-21T21:49:08.879Z,8.70
2022-11-21T21:51:38.938Z,8.40
2022-11-21T21:54:07.487Z,6.93
2022-11-21T21:56:35.466Z,6.90
2022-11-21T21:59:03.415Z,8.13
2022-11-21T22:01:33.049Z,8.43
2022-11-21T22:04:02.948Z,9.73
2022-11-21T22:06:31.368Z,8.33
2022-11-21T22:09:00.763Z,7.90
2022-11-21T22:11:30.376Z,8.33
2022-11-21T22:13:59.784Z,9.03
2022-11-21T22:16:28.522Z,7.50
2022-11-21T22:18:56.906Z,8.77
2022-11-21T22:21:27.698Z,6.97
2022-11-21T22:24:23.549Z,7.33
2022-11-21T22:26:46.185Z,6.10
2022-11-21T22:29:13.941Z,8.13
2022-11-21T22:31:41.621Z,8.63
2022-11-21T22:34:10.959Z,8.10
2022-11-21T22:36:38.845Z,12.03
2022-11-21T22:39:06.553Z,9.83
2022-11-21T22:41:34.749Z,10.33
2022-11-21T22:44:03.966Z,11.17
2022-11-21T22:46:31.866Z,9.80
2022-11-21T22:48:59.925Z,6.87
2022-11-21T22:51:30.139Z,6.23
2022-11-21T22:53:58.672Z,11.07
2022-11-21T22:56:27.184Z,10.60
2022-11-21T22:58:55.067Z,5.57
2022-11-21T23:01:26.290Z,7.80
2022-11-21T23:03:56.587Z,7.27
2022-11-21T23:06:26.096Z,12.83
2022-11-21T23:08:55.596Z,8.93
2022-11-21T23:11:26.143Z,9.17
2022-11-21T23:13:55.358Z,13.63
2022-11-21T23:16:25.334Z,7.73
2022-11-21T23:18:53.898Z,7.23
2022-11-21T23:21:23.314Z,11.87
2022-11-21T23:23:52.940Z,14.17
2022-11-21T23:26:21.013Z,10.37
2022-11-21T23:28:48.992Z,12.80
2022-11-21T23:31:17.143Z,13.30
2022-11-21T23:33:46.277Z,12.90
2022-11-21T23:36:14.276Z,13.40
2022-11-21T23:38:42.055Z,10.90
2022-11-21T23:41:09.816Z,17.43
2022-11-21T23:43:37.668Z,15.13
2022-11-21T23:46:08.378Z,18.37
2022-11-21T23:48:36.548Z,15.23
2022-11-21T23:51:05.698Z,11.27
2022-11-21T23:53:33.432Z,11.70
2022-11-21T23:56:01.203Z,8.00
2022-11-21T23:58:29.027Z,14.73
